Time;durP1;ratioP1;P1;durP2;ratioP2;P2;SDS_P1;SDS_P2;PMS_P1;PMS_P2;Temp;Humidity;BMP_temperature;BMP_pressure;BME280_temperature;BME280_humidity;BME280_pressure;Samples;Min_cycle;Max_cycle;Signal;HPM_P1;HPM_P2
2022/06/18 00:00:14;;;;;;;9.10;7.15;;;;;;;20.49;49.75;100790.50;5009556;28;97466;-81
2022/06/18 00:02:41;;;;;;;9.20;8.40;;;;;;;20.39;49.86;100788.56;5011775;28;97755;-81
2022/06/18 00:05:07;;;;;;;9.20;7.60;;;;;;;20.40;49.67;100780.47;5013567;28;98449;-81
2022/06/18 00:07:38;;;;;;;10.32;7.63;;;;;;;20.28;50.56;100786.63;5030362;28;96825;-80
2022/06/18 00:10:06;;;;;;;8.23;7.47;;;;;;;20.34;50.11;100788.88;5011461;28;96941;-79
2022/06/18 00:15:22;;;;;;;11.90;7.93;;;;;;;20.34;50.03;100781.75;5004099;28;101550;-80
2022/06/18 00:17:48;;;;;;;9.00;8.10;;;;;;;20.28;50.35;100784.81;5008687;28;98297;-79
2022/06/18 00:20:15;;;;;;;9.48;8.02;;;;;;;20.38;49.98;100784.19;4992488;28;97187;-79
2022/06/18 00:22:43;;;;;;;9.32;8.38;;;;;;;20.31;49.91;100781.09;4992291;28;101504;-83
2022/06/18 00:25:22;;;;;;;8.98;8.07;;;;;;;20.19;50.04;100769.47;5012959;28;101003;-80
2022/06/18 00:27:47;;;;;;;9.63;8.73;;;;;;;19.98;50.79;100774.38;4995573;28;97233;-79
2022/06/18 00:30:16;;;;;;;9.05;8.15;;;;;;;19.72;51.14;100761.94;4996393;28;97002;-80
2022/06/18 00:32:41;;;;;;;9.88;8.07;;;;;;;19.57;51.48;100761.09;5012249;28;100136;-83
2022/06/18 00:35:08;;;;;;;8.73;7.85;;;;;;;19.60;51.46;100769.72;5026417;28;98958;-80
2022/06/18 00:37:34;;;;;;;8.88;8.15;;;;;;;19.50;51.81;100757.13;4999118;28;97041;-80
2022/06/18 00:40:00;;;;;;;8.95;7.95;;;;;;;19.49;51.77;100766.91;4996209;28;96955;-80
2022/06/18 00:42:30;;;;;;;9.77;7.97;;;;;;;19.44;51.87;100761.88;5009590;28;98091;-80
2022/06/18 00:44:58;;;;;;;8.63;7.68;;;;;;;19.40;51.79;100756.84;5013960;28;100999;-79
2022/06/18 00:47:34;;;;;;;8.30;7.28;;;;;;;19.50;51.99;100767.78;4995992;28;97213;-80
2022/06/18 00:50:25;;;;;;;8.93;7.93;;;;;;;19.71;51.38;100768.22;4996163;28;97458;-80
2022/06/18 00:52:54;;;;;;;8.33;7.50;;;;;;;19.75;51.24;100767.03;5022302;28;100970;-79
2022/06/18 00:55:30;;;;;;;9.88;8.02;;;;;;;19.69;51.24;100762.97;5015993;28;98066;-79
2022/06/18 00:58:01;;;;;;;8.30;7.47;;;;;;;19.85;50.98;100774.34;5015260;28;96941;-79
2022/06/18 01:00:42;;;;;;;10.45;7.72;;;;;;;19.78;51.08;100773.06;5032682;28;97035;-80
2022/06/18 01:03:36;;;;;;;8.40;7.50;;;;;;;19.64;51.24;100759.75;4998724;28;101509;-80
2022/06/18 01:06:17;;;;;;;8.85;7.95;;;;;;;19.59;51.32;100768.03;4996273;28;101448;-79
2022/06/18 01:08:44;;;;;;;8.25;7.55;;;;;;;19.72;51.19;100767.25;5020458;27;99416;-82
2022/06/18 01:11:17;;;;;;;9.18;7.57;;;;;;;19.71;51.11;100758.41;5015342;28;96933;-80
2022/06/18 01:13:42;;;;;;;9.13;7.93;;;;;;;19.57;51.31;100761.94;5001690;28;97516;-82
2022/06/18 01:16:11;;;;;;;8.77;8.00;;;;;;;19.36;52.00;100761.50;5015974;28;101445;-80
2022/06/18 01:18:41;;;;;;;9.13;8.32;;;;;;;19.42;51.78;100753.13;4999496;28;97090;-80
2022/06/18 01:21:27;;;;;;;8.95;8.15;;;;;;;19.46;51.72;100759.13;4993574;28;97118;-81
2022/06/18 01:24:18;;;;;;;10.85;7.68;;;;;;;19.34;51.85;100763.41;5008422;28;102230;-79
2022/06/18 01:26:47;;;;;;;7.53;7.03;;;;;;;19.34;52.02;100760.75;5026467;28;102169;-82
2022/06/18 01:29:13;;;;;;;8.00;7.20;;;;;;;19.44;51.61;100748.56;5005052;28;97269;-79
2022/06/18 01:31:39;;;;;;;8.63;7.88;;;;;;;19.44;51.46;100742.41;5003834;28;96973;-80
2022/06/18 01:34:06;;;;;;;11.35;8.20;;;;;;;19.41;51.63;100764.75;5019447;28;100742;-80
2022/06/18 01:36:36;;;;;;;9.55;8.00;;;;;;;19.44;51.54;100748.56;5005369;28;101804;-80
2022/06/18 01:39:04;;;;;;;9.00;7.82;;;;;;;19.16;51.91;100738.81;5014096;28;97282;-80
2022/06/18 01:41:49;;;;;;;8.00;7.30;;;;;;;19.29;52.00;100757.53;5012959;28;98326;-80
2022/06/18 01:44:32;;;;;;;9.52;7.97;;;;;;;19.30;51.97;100753.91;5001635;28;101926;-81
2022/06/18 01:47:03;;;;;;;9.25;8.43;;;;;;;19.11;52.25;100734.72;5006537;28;101273;-81
2022/06/18 01:49:38;;;;;;;9.57;8.05;;;;;;;19.08;52.68;100734.94;4988251;28;96804;-80
2022/06/18 01:52:05;;;;;;;8.20;7.50;;;;;;;19.09;52.50;100726.88;5011206;28;98623;-80
2022/06/18 01:55:02;;;;;;;10.27;8.00;;;;;;;19.05;52.87;100740.44;4999555;28;101403;-80
2022/06/18 01:57:35;;;;;;;7.85;7.20;;;;;;;19.00;52.86;100735.44;5023937;28;101588;-81
2022/06/18 02:00:13;;;;;;;9.02;7.70;;;;;;;19.06;52.89;100734.19;4996033;28;97290;-81
2022/06/18 02:02:42;;;;;;;8.05;7.35;;;;;;;18.92;53.37;100724.41;5011756;28;97058;-82
2022/06/18 02:05:09;;;;;;;8.80;8.10;;;;;;;18.91;53.42;100722.72;4997493;28;101522;-81
2022/06/18 02:07:35;;;;;;;8.68;7.90;;;;;;;18.80;53.38;100711.88;4994402;28;101413;-82
2022/06/18 02:10:04;;;;;;;8.73;7.90;;;;;;;18.92;53.65;100721.75;4998427;28;98244;-81
2022/06/18 02:12:36;;;;;;;7.78;7.10;;;;;;;18.88;53.52;100706.91;4996119;28;97106;-80
2022/06/18 02:15:05;;;;;;;7.95;7.35;;;;;;;18.93;53.38;100700.34;5010742;28;97577;-81
2022/06/18 02:17:31;;;;;;;8.85;7.97;;;;;;;18.86;53.62;100715.00;4985132;28;101008;-82
2022/06/18 02:20:18;;;;;;;7.70;6.82;;;;;;;18.94;53.67;100712.72;5012511;28;97221;-80
2022/06/18 02:22:48;;;;;;;8.52;6.90;;;;;;;18.87;53.81;100716.72;5012741;28;96779;-81
2022/06/18 02:25:15;;;;;;;7.97;7.38;;;;;;;18.82;54.18;100709.97;5014573;28;101233;-81
2022/06/18 02:27:41;;;;;;;7.97;7.18;;;;;;;18.86;53.65;100698.19;4992824;28;101692;-81
2022/06/18 02:30:20;;;;;;;9.68;7.25;;;;;;;18.96;53.64;100715.28;5010581;28;96808;-83
2022/06/18 02:33:29;;;;;;;9.02;7.15;;;;;;;19.00;53.69;100712.34;5011166;28;97107;-83
2022/06/18 02:35:58;;;;;;;7.40;6.82;;;;;;;18.78;54.20;100719.94;5011193;28;98009;-81
2022/06/18 02:38:23;;;;;;;7.85;7.05;;;;;;;18.77;54.24;100707.59;5011967;28;101959;-83
2022/06/18 02:40:49;;;;;;;7.55;6.82;;;;;;;18.82;54.15;100716.16;5010782;28;96849;-82
2022/06/18 02:43:17;;;;;;;7.82;6.93;;;;;;;18.75;54.30;100723.63;5011280;28;96889;-84
2022/06/18 02:45:44;;;;;;;9.95;6.93;;;;;;;18.76;54.47;100721.84;4997682;28;101511;-81
2022/06/18 02:48:10;;;;;;;7.38;6.72;;;;;;;18.92;53.94;100708.44;5027645;28;98042;-81
2022/06/18 02:50:39;;;;;;;9.32;7.30;;;;;;;19.08;54.12;100725.16;5013571;28;97143;-81
2022/06/18 02:53:06;;;;;;;7.97;6.55;;;;;;;18.96;54.04;100723.25;4997013;28;96936;-81
2022/06/18 02:55:46;;;;;;;6.85;6.32;;;;;;;18.94;54.29;100722.53;5010743;28;101707;-81
2022/06/18 02:58:17;;;;;;;7.00;6.50;;;;;;;18.98;54.34;100718.69;5004807;28;101265;-81
2022/06/18 03:00:51;;;;;;;6.70;6.10;;;;;;;18.99;54.09;100725.72;5014806;28;97004;-81
2022/06/18 03:03:19;;;;;;;7.57;6.80;;;;;;;19.09;53.95;100726.88;4984507;28;96831;-83
2022/06/18 03:05:44;;;;;;;12.00;6.63;;;;;;;19.09;53.76;100699.41;4996027;28;101066;-80
2022/06/18 03:08:10;;;;;;;6.90;6.40;;;;;;;19.21;53.83;100714.59;5011163;28;101439;-81
2022/06/18 03:13:20;;;;;;;7.82;7.07;;;;;;;18.98;54.06;100705.41;5015924;28;97287;-81
2022/06/18 03:15:51;;;;;;;8.35;7.35;;;;;;;19.11;54.11;100718.78;4997590;28;101978;-84
2022/06/18 03:18:19;;;;;;;8.15;7.45;;;;;;;19.09;54.06;100718.03;4996992;28;101829;-80
2022/06/18 03:20:56;;;;;;;7.85;7.25;;;;;;;18.99;54.44;100720.41;4996482;28;97000;-81
2022/06/18 03:23:23;;;;;;;14.25;7.22;;;;;;;18.93;54.34;100700.34;5028347;28;97178;-80
2022/06/18 03:25:50;;;;;;;8.23;7.53;;;;;;;19.22;53.98;100713.63;5013294;28;101305;-84
2022/06/18 03:28:18;;;;;;;8.30;7.50;;;;;;;19.10;54.26;100717.94;5013645;28;98528;-80
2022/06/18 03:30:44;;;;;;;9.88;7.53;;;;;;;19.05;54.31;100696.06;4992020;28;97206;-81
2022/06/18 03:33:10;;;;;;;9.32;7.80;;;;;;;19.12;54.39;100720.50;4993453;28;97523;-81
2022/06/18 03:35:38;;;;;;;8.18;7.40;;;;;;;19.07;54.38;100711.94;5014282;28;100852;-80
2022/06/18 03:38:04;;;;;;;8.45;7.60;;;;;;;19.06;54.48;100712.91;4988739;28;100704;-81
2022/06/18 03:40:29;;;;;;;10.85;6.82;;;;;;;19.11;54.55;100722.31;5011736;28;96996;-81
2022/06/18 03:42:56;;;;;;;7.40;6.80;;;;;;;19.17;54.51;100713.09;4996253;28;96985;-81
2022/06/18 03:45:22;;;;;;;7.90;7.30;;;;;;;19.11;54.31;100702.81;4996423;28;101526;-81
2022/06/18 03:47:48;;;;;;;10.77;7.30;;;;;;;19.15;54.27;100704.34;5031582;28;98080;-81
2022/06/18 03:50:17;;;;;;;8.18;7.35;;;;;;;19.22;54.17;100705.63;5012983;28;97906;-81
2022/06/18 03:52:43;;;;;;;7.85;7.05;;;;;;;19.19;54.17;100713.81;4987841;28;97417;-81
2022/06/18 03:55:10;;;;;;;9.75;6.95;;;;;;;19.17;54.19;100705.09;4995193;28;101360;-81
2022/06/18 03:57:37;;;;;;;8.55;7.30;;;;;;;19.25;54.10;100708.09;4985844;28;100692;-81
2022/06/18 04:00:10;;;;;;;8.73;7.40;;;;;;;19.25;54.02;100712.56;5012053;28;97107;-81
2022/06/18 04:02:42;;;;;;;8.25;7.55;;;;;;;19.20;54.27;100703.09;5027026;28;96889;-80
2022/06/18 04:05:10;;;;;;;10.23;8.20;;;;;;;19.13;54.20;100692.94;5003445;28;100922;-81
2022/06/18 04:07:36;;;;;;;8.75;7.95;;;;;;;19.26;54.04;100700.97;5012863;28;101037;-81
2022/06/18 04:10:02;;;;;;;8.48;7.57;;;;;;;19.30;54.08;100699.84;5012871;28;97173;-80
2022/06/18 04:12:29;;;;;;;8.07;7.43;;;;;;;19.29;54.10;100692.81;5010510;28;96937;-81
2022/06/18 04:15:06;;;;;;;8.32;7.75;;;;;;;19.29;53.87;100698.13;5028143;28;98134;-81
2022/06/18 04:17:54;;;;;;;11.82;7.93;;;;;;;19.45;54.16;100696.19;5014583;28;99316;-81
2022/06/18 04:20:26;;;;;;;9.27;8.30;;;;;;;19.30;54.20;100682.06;5015014;28;97081;-80
2022/06/18 04:22:52;;;;;;;16.42;8.02;;;;;;;19.40;54.26;100692.94;4999679;28;97239;-83
2022/06/18 04:25:19;;;;;;;8.48;7.60;;;;;;;19.42;54.04;100688.38;4995963;28;101672;-80
2022/06/18 04:27:44;;;;;;;7.80;7.10;;;;;;;19.45;54.02;100697.03;4995550;28;101206;-80
2022/06/18 04:30:11;;;;;;;8.38;7.68;;;;;;;19.49;54.15;100695.03;4993930;28;97046;-80
2022/06/18 04:33:03;;;;;;;9.60;7.53;;;;;;;19.52;53.94;100696.63;5022223;28;98056;-83
2022/06/18 04:35:32;;;;;;;8.48;7.78;;;;;;;19.57;53.95;100698.03;5016420;28;101486;-80
2022/06/18 04:38:03;;;;;;;;;;;;;;;19.53;54.55;100691.22;4996937;28;101121;-80
2022/06/18 04:41:01;;;;;;;9.20;7.53;;;;;;;19.62;54.06;100679.94;5010561;28;98499;-80
2022/06/18 04:43:34;;;;;;;8.93;7.63;;;;;;;19.63;54.08;100681.69;4991225;28;96847;-80
2022/06/18 04:45:59;;;;;;;8.10;7.40;;;;;;;19.56;54.21;100663.53;5015082;28;101785;-84
2022/06/18 04:48:26;;;;;;;10.40;7.53;;;;;;;19.77;53.91;100680.78;4998181;28;101606;-80
2022/06/18 04:50:52;;;;;;;8.45;7.68;;;;;;;19.90;53.40;100670.16;5002954;28;96729;-80
2022/06/18 04:53:19;;;;;;;9.55;7.88;;;;;;;19.88;53.49;100672.91;4994802;28;96925;-82
2022/06/18 04:55:47;;;;;;;8.30;7.45;;;;;;;19.92;53.39;100670.88;5000038;28;101009;-80
2022/06/18 04:58:13;;;;;;;10.77;7.28;;;;;;;19.99;53.38;100669.53;4991724;28;100778;-81
2022/06/18 05:00:46;;;;;;;7.65;7.10;;;;;;;20.03;53.34;100671.03;5017322;28;96879;-81
2022/06/18 05:03:18;;;;;;;7.90;7.30;;;;;;;20.07;53.18;100674.31;5000292;28;97980;-80
2022/06/18 05:06:13;;;;;;;8.18;7.38;;;;;;;20.20;53.17;100677.88;5012709;28;98088;-80
2022/06/18 05:08:52;;;;;;;8.10;7.30;;;;;;;20.21;53.08;100662.72;5004695;28;101473;-80
2022/06/18 05:11:36;;;;;;;7.57;7.07;;;;;;;20.23;53.20;100672.31;5032997;28;96831;-80
2022/06/18 05:14:27;;;;;;;;;;;;;;;20.30;53.09;100662.09;4982743;28;96841;-80
2022/06/18 05:17:05;;;;;;;7.95;7.20;;;;;;;20.33;53.25;100669.88;5017203;28;101001;-80
2022/06/18 05:19:34;;;;;;;8.30;7.50;;;;;;;20.39;53.26;100673.94;5000009;28;101719;-81
2022/06/18 05:22:02;;;;;;;8.05;7.28;;;;;;;20.35;53.49;100676.81;4992112;28;97348;-81
2022/06/18 05:24:29;;;;;;;8.48;7.07;;;;;;;20.44;53.40;100675.31;5012802;28;97070;-81
2022/06/18 05:26:57;;;;;;;8.07;7.38;;;;;;;20.48;52.93;100678.63;5015259;28;101516;-81
2022/06/18 05:29:23;;;;;;;8.23;7.43;;;;;;;20.50;53.06;100663.38;4995761;28;101328;-80
2022/06/18 05:31:49;;;;;;;7.88;7.32;;;;;;;20.72;52.48;100668.09;5013999;28;97797;-81
2022/06/18 05:34:15;;;;;;;8.40;7.28;;;;;;;20.86;52.50;100670.63;4998808;28;97323;-81
2022/06/18 05:36:42;;;;;;;11.85;7.63;;;;;;;20.91;52.03;100672.94;5011594;28;101441;-81
2022/06/18 05:39:10;;;;;;;8.00;7.35;;;;;;;21.05;51.49;100667.47;5010529;28;101163;-81
2022/06/18 05:41:36;;;;;;;14.63;8.05;;;;;;;21.10;51.38;100656.47;5010656;28;96792;-82
2022/06/18 05:44:03;;;;;;;9.20;7.65;;;;;;;21.11;51.68;100648.34;5005227;28;97112;-81
2022/06/18 05:46:29;;;;;;;10.65;7.35;;;;;;;21.22;51.26;100651.06;5015866;28;101262;-81
2022/06/18 05:48:55;;;;;;;7.82;7.18;;;;;;;21.17;51.59;100649.72;4998259;28;101614;-80
2022/06/18 05:51:20;;;;;;;7.70;7.07;;;;;;;21.09;51.47;100650.28;5011060;28;97286;-80
2022/06/18 05:53:46;;;;;;;8.38;7.70;;;;;;;21.09;51.72;100646.75;5022456;28;97715;-80
2022/06/18 05:56:34;;;;;;;8.18;7.28;;;;;;;21.20;51.63;100645.00;4980797;28;97507;-80
2022/06/18 05:59:00;;;;;;;9.15;8.23;;;;;;;21.40;51.62;100653.38;5024902;28;97806;-80
2022/06/18 06:01:30;;;;;;;9.20;8.35;;;;;;;21.44;51.48;100647.72;5006602;28;97189;-81
2022/06/18 06:04:00;;;;;;;8.63;7.80;;;;;;;21.63;51.45;100641.00;5011725;28;96976;-83
2022/06/18 06:06:25;;;;;;;11.73;8.25;;;;;;;22.16;50.34;100641.38;5014037;28;101362;-80
2022/06/18 06:08:52;;;;;;;8.90;8.15;;;;;;;22.73;49.24;100653.00;5012752;28;101865;-81
2022/06/18 06:11:30;;;;;;;9.05;8.35;;;;;;;23.02;48.34;100646.19;5002783;28;97881;-81
2022/06/18 06:13:57;;;;;;;8.27;7.60;;;;;;;22.86;48.05;100618.91;5031686;28;97200;-81
2022/06/18 06:16:24;;;;;;;13.07;7.55;;;;;;;23.07;47.47;100643.16;5013917;28;101689;-80
2022/06/18 06:18:50;;;;;;;8.60;7.90;;;;;;;23.11;47.47;100646.44;4994253;28;101449;-80
2022/06/18 06:21:16;;;;;;;10.40;8.48;;;;;;;23.11;47.76;100646.44;4995079;28;97320;-80
2022/06/18 06:23:42;;;;;;;8.68;7.82;;;;;;;23.33;47.37;100637.47;4994658;28;96963;-79
2022/06/18 06:26:34;;;;;;;8.95;8.05;;;;;;;23.97;46.49;100641.97;4997611;28;101219;-81
2022/06/18 06:29:00;;;;;;;10.18;9.20;;;;;;;24.44;45.34;100647.78;4990430;28;101043;-82
2022/06/18 06:31:26;;;;;;;9.00;8.35;;;;;;;25.45;42.84;100620.81;5031108;28;96725;-80
2022/06/18 06:33:52;;;;;;;8.80;8.20;;;;;;;26.17;41.46;100627.53;5015157;28;97255;-80
2022/06/18 06:36:17;;;;;;;9.20;8.50;;;;;;;26.70;40.41;100628.78;5030355;28;101445;-80
2022/06/18 06:38:43;;;;;;;8.32;7.63;;;;;;;26.79;38.96;100616.25;5013598;28;97346;-79
2022/06/18 06:41:16;;;;;;;9.70;8.75;;;;;;;27.19;38.28;100615.06;4993745;28;96903;-80
2022/06/18 06:43:41;;;;;;;9.60;8.80;;;;;;;27.86;37.07;100618.22;4995075;28;97178;-80
2022/06/18 06:46:11;;;;;;;9.48;8.68;;;;;;;28.08;36.65;100614.16;4992279;28;101546;-81
2022/06/18 06:48:37;;;;;;;8.90;8.13;;;;;;;28.22;36.26;100602.78;5029360;28;97800;-81
2022/06/18 06:51:08;;;;;;;9.30;8.68;;;;;;;28.64;35.48;100605.53;5013578;28;96880;-81
2022/06/18 06:53:33;;;;;;;;;;;;;;;29.41;34.48;100591.91;4998050;28;96910;-80
2022/06/18 06:58:43;;;;;;;8.73;8.10;;;;;;;29.09;34.54;100592.72;5030622;28;97529;-79
2022/06/18 07:01:08;;;;;;;8.52;7.80;;;;;;;28.75;35.08;100577.41;5031049;28;96707;-81
2022/06/18 07:03:34;;;;;;;8.80;8.10;;;;;;;29.29;33.91;100583.28;4993328;28;97201;-80
2022/06/18 07:06:01;;;;;;;8.57;7.28;;;;;;;30.01;33.27;100569.06;5012677;28;101258;-80
2022/06/18 07:08:27;;;;;;;8.70;8.00;;;;;;;30.45;33.27;100574.84;5009292;28;101180;-80
2022/06/18 07:10:53;;;;;;;9.52;8.63;;;;;;;30.98;32.45;100560.72;5007861;28;97097;-80
2022/06/18 07:13:19;;;;;;;8.85;7.88;;;;;;;31.49;31.72;100559.19;4995323;28;96972;-80
2022/06/18 07:15:45;;;;;;;8.60;8.00;;;;;;;32.03;30.75;100560.94;5014139;28;97546;-80
2022/06/18 07:18:16;;;;;;;11.25;8.13;;;;;;;31.91;29.34;100562.38;5028904;28;97952;-81
2022/06/18 07:20:42;;;;;;;8.80;8.00;;;;;;;31.76;30.25;100549.59;5009588;28;97698;-81
2022/06/18 07:23:08;;;;;;;9.30;8.55;;;;;;;32.05;28.98;100550.69;5008473;28;96940;-81
2022/06/18 07:25:34;;;;;;;8.30;7.60;;;;;;;32.50;28.73;100564.31;4996714;28;101414;-81
2022/06/18 07:28:00;;;;;;;9.30;8.50;;;;;;;32.51;28.34;100564.09;5026452;28;98138;-80
2022/06/18 07:30:26;;;;;;;9.15;8.45;;;;;;;31.89;29.16;100551.69;5029533;28;97106;-80
2022/06/18 07:32:51;;;;;;;9.60;8.18;;;;;;;31.58;28.88;100563.50;4996844;28;97334;-80
2022/06/18 07:35:29;;;;;;;8.93;8.10;;;;;;;31.83;28.71;100560.59;5011432;28;97746;-80
2022/06/18 07:37:56;;;;;;;8.50;7.88;;;;;;;31.95;28.87;100540.13;4990329;28;100717;-82
2022/06/18 07:40:22;;;;;;;8.55;8.05;;;;;;;31.89;28.95;100529.16;5016401;28;97371;-82
2022/06/18 07:42:48;;;;;;;9.25;8.55;;;;;;;32.58;27.63;100542.44;5011861;28;98435;-83
2022/06/18 07:45:20;;;;;;;8.77;8.00;;;;;;;33.14;26.97;100545.41;4999500;28;97737;-82
2022/06/18 07:47:46;;;;;;;8.52;8.00;;;;;;;33.58;26.63;100544.34;4976572;28;100945;-82
2022/06/18 07:50:13;;;;;;;8.68;8.02;;;;;;;33.80;26.47;100526.06;5010326;28;97070;-83
2022/06/18 07:52:38;;;;;;;8.40;7.47;;;;;;;33.81;25.50;100547.66;4988256;28;97182;-83
2022/06/18 07:55:05;;;;;;;9.40;8.50;;;;;;;33.69;25.28;100541.09;4994322;28;101720;-84
2022/06/18 07:57:30;;;;;;;8.68;7.97;;;;;;;33.93;25.64;100538.94;5011906;28;101740;-82
2022/06/18 07:59:57;;;;;;;8.70;7.95;;;;;;;33.94;25.40;100548.78;5030993;28;97269;-81
2022/06/18 08:02:25;;;;;;;8.65;8.05;;;;;;;34.31;25.00;100531.22;5028814;28;96919;-82
2022/06/18 08:04:51;;;;;;;8.13;7.63;;;;;;;34.64;25.07;100534.09;5014514;28;100966;-81
2022/06/18 08:07:16;;;;;;;8.73;8.02;;;;;;;34.86;24.75;100532.06;5012195;28;101257;-81
2022/06/18 08:09:42;;;;;;;8.50;7.82;;;;;;;35.03;24.58;100527.06;5012736;28;97274;-83
2022/06/18 08:12:07;;;;;;;9.02;8.43;;;;;;;35.16;24.17;100529.00;5027923;28;97423;-84
2022/06/18 08:14:33;;;;;;;8.52;8.00;;;;;;;34.91;23.92;100513.22;5012838;28;101036;-82
2022/06/18 08:16:58;;;;;;;8.63;8.05;;;;;;;34.94;24.57;100525.59;5015773;28;101479;-82
2022/06/18 08:19:24;;;;;;;8.48;7.97;;;;;;;35.19;24.59;100517.66;4997551;28;96886;-82
2022/06/18 08:21:50;;;;;;;8.95;8.13;;;;;;;35.39;24.19;100506.75;4998666;28;97266;-82
2022/06/18 08:24:18;;;;;;;8.82;8.20;;;;;;;35.69;23.88;100518.09;5005591;28;102078;-82
2022/06/18 08:26:44;;;;;;;9.00;8.43;;;;;;;36.33;23.04;100521.09;5020349;28;97632;-82
2022/06/18 08:29:13;;;;;;;9.43;8.63;;;;;;;36.38;22.94;100516.66;5004809;28;97241;-89
2022/06/18 08:31:38;;;;;;;7.95;7.45;;;;;;;35.90;22.75;100508.81;5012575;28;96888;-87
2022/06/18 08:34:04;;;;;;;9.35;8.52;;;;;;;36.07;23.06;100514.66;4997203;28;101615;-87
2022/06/18 08:36:30;;;;;;;9.60;8.90;;;;;;;35.47;23.17;100500.25;4998103;28;99863;-86
2022/06/18 08:38:56;;;;;;;8.88;8.38;;;;;;;35.47;23.11;100486.59;5022237;28;96736;-87
2022/06/18 08:41:34;;;;;;;9.48;8.73;;;;;;;35.45;22.97;100491.44;4998664;28;97150;-86
2022/06/18 08:44:09;;;;;;;8.77;8.27;;;;;;;35.80;22.74;100460.09;5008547;28;97531;-87
2022/06/18 08:46:50;;;;;;;8.45;7.88;;;;;;;35.73;21.57;100480.31;5014372;28;98727;-86
2022/06/18 08:49:32;;;;;;;7.80;7.30;;;;;;;35.18;21.69;100458.72;5007528;28;97222;-87
2022/06/18 08:52:10;;;;;;;8.75;8.02;;;;;;;35.25;22.20;100475.06;4996321;28;98087;-87
2022/06/18 08:54:52;;;;;;;8.63;8.00;;;;;;;34.00;25.71;100471.75;5009660;28;101133;-82
2022/06/18 08:58:03;;;;;;;8.02;7.50;;;;;;;33.31;24.17;100480.69;5007994;28;103137;-81
2022/06/18 09:00:39;;;;;;;8.55;7.68;;;;;;;33.96;23.64;100460.41;5027398;28;96875;-87
2022/06/18 09:03:47;;;;;;;7.78;7.28;;;;;;;34.31;23.41;100454.94;5013225;28;97283;-86
2022/06/18 09:06:58;;;;;;;7.18;6.72;;;;;;;34.27;22.92;100450.97;5029901;27;98218;-86
2022/06/18 09:09:42;;;;;;;7.90;7.40;;;;;;;34.10;22.84;100455.09;5009056;28;101680;-86
2022/06/18 09:12:27;;;;;;;7.22;6.72;;;;;;;33.94;23.12;100442.59;5022926;28;96845;-86
2022/06/18 09:15:04;;;;;;;11.15;6.93;;;;;;;33.98;23.93;100447.47;5013274;28;96841;-87
2022/06/18 09:17:42;;;;;;;7.28;6.75;;;;;;;34.08;23.62;100425.31;5005974;28;101416;-87
2022/06/18 09:20:14;;;;;;;8.02;7.43;;;;;;;34.11;22.96;100449.41;5009621;28;101245;-85
2022/06/18 09:22:47;;;;;;;9.93;9.07;;;;;;;33.92;23.22;100442.81;5028059;28;96991;-95
2022/06/18 09:25:14;;;;;;;10.52;9.88;;;;;;;33.73;23.24;100425.34;5008910;28;96867;-86
2022/06/18 09:28:03;;;;;;;9.85;8.95;;;;;;;33.73;24.12;100433.50;5009802;28;101046;-87
2022/06/18 09:30:31;;;;;;;7.60;6.90;;;;;;;33.69;23.72;100437.66;5006524;28;100914;-86
2022/06/18 09:33:06;;;;;;;7.28;6.78;;;;;;;33.81;24.21;100440.66;5027083;28;97324;-85
2022/06/18 09:35:45;;;;;;;7.72;7.13;;;;;;;33.25;23.78;100424.34;5009056;28;97332;-86
2022/06/18 09:38:18;;;;;;;7.23;6.83;;;;;;;33.38;24.70;100438.06;4989467;28;101749;-86
2022/06/18 09:41:01;;;;;;;7.00;6.60;;;;;;;33.44;24.06;100433.72;5008844;28;101654;-86
2022/06/18 09:43:42;;;;;;;7.20;6.60;;;;;;;33.57;24.23;100442.00;5012641;28;97366;-86
2022/06/18 09:46:35;;;;;;;6.50;6.20;;;;;;;33.13;23.57;100421.34;5026218;28;96983;-86
2022/06/18 09:49:00;;;;;;;7.00;6.40;;;;;;;32.77;23.91;100416.81;5010139;28;97456;-85
2022/06/18 09:51:42;;;;;;;6.82;6.43;;;;;;;32.52;24.78;100407.38;5007095;28;101200;-83
2022/06/18 09:54:08;;;;;;;7.22;6.72;;;;;;;32.67;24.25;100414.44;5027466;28;96776;-83
2022/06/18 09:56:38;;;;;;;7.53;6.93;;;;;;;32.26;24.96;100422.34;4994073;28;97405;-84
2022/06/18 09:59:08;;;;;;;7.80;6.72;;;;;;;32.03;25.60;100411.63;5029154;28;98050;-84
2022/06/18 10:01:41;;;;;;;6.95;6.50;;;;;;;31.95;25.53;100415.28;5028367;28;98397;-86
2022/06/18 10:06:52;;;;;;;6.78;6.30;;;;;;;31.91;26.47;100392.28;5012752;28;97512;-84
2022/06/18 10:09:33;;;;;;;6.55;6.15;;;;;;;31.90;26.15;100384.28;5019437;28;97462;-84
2022/06/18 10:12:03;;;;;;;7.10;6.50;;;;;;;31.74;25.86;100377.19;5018423;28;97483;-84
2022/06/18 10:14:29;;;;;;;6.68;6.07;;;;;;;31.71;26.55;100396.56;5001116;28;96848;-84
2022/06/18 10:17:19;;;;;;;6.82;6.15;;;;;;;31.55;26.45;100401.13;5012486;28;96866;-84
2022/06/18 10:20:06;;;;;;;6.80;6.20;;;;;;;31.38;27.18;100393.38;5028197;28;98610;-84
2022/06/18 10:22:59;;;;;;;6.75;6.25;;;;;;;31.34;26.57;100392.88;5009449;28;100830;-83
2022/06/18 10:25:36;;;;;;;6.47;6.05;;;;;;;31.19;27.00;100373.88;5018765;28;98106;-84
2022/06/18 10:28:37;;;;;;;6.53;6.03;;;;;;;31.34;26.60;100385.56;5001460;28;97449;-83
2022/06/18 10:31:11;;;;;;;;;;;;;;;30.99;26.78;100386.28;4983472;28;101134;-83
2022/06/18 10:33:49;;;;;;;6.40;6.00;;;;;;;30.96;27.08;100375.81;5005241;28;101893;-84
2022/06/18 10:36:22;;;;;;;7.72;7.03;;;;;;;31.01;27.15;100376.06;5016261;28;97279;-83
2022/06/18 10:38:50;;;;;;;6.20;5.80;;;;;;;30.68;27.60;100349.25;5018527;28;97452;-83
2022/06/18 10:41:31;;;;;;;6.53;5.90;;;;;;;30.78;27.94;100359.84;5021752;28;101096;-83
2022/06/18 10:44:41;;;;;;;6.50;6.05;;;;;;;30.80;27.66;100363.25;4990834;28;101484;-83
2022/06/18 10:47:12;;;;;;;6.60;6.10;;;;;;;30.63;27.92;100352.53;4913843;28;97251;-83
2022/06/18 10:49:37;;;;;;;6.32;5.88;;;;;;;30.57;28.05;100352.38;4950237;28;97097;-88
2022/06/18 10:52:03;;;;;;;6.43;5.90;;;;;;;30.59;27.82;100351.19;4933932;28;101282;-90
2022/06/18 10:54:38;;;;;;;8.07;6.15;;;;;;;30.61;27.63;100346.44;4946535;28;98020;-88
2022/06/18 10:57:04;;;;;;;6.93;5.80;;;;;;;30.62;27.42;100337.28;4945502;28;98172;-88
2022/06/18 10:59:34;;;;;;;6.63;6.20;;;;;;;30.54;27.65;100340.03;4915297;28;97246;-90
2022/06/18 11:02:09;;;;;;;6.28;5.85;;;;;;;30.26;28.02;100323.53;4926648;28;101434;-88
2022/06/18 11:04:35;;;;;;;8.38;5.88;;;;;;;30.25;28.17;100326.41;4920448;28;101646;-87
2022/06/18 11:07:04;;;;;;;6.90;6.20;;;;;;;30.31;28.35;100322.97;4917114;28;96848;-87
2022/06/18 11:09:32;;;;;;;6.57;6.13;;;;;;;30.40;27.79;100339.00;4930251;28;98280;-87
2022/06/18 11:12:00;;;;;;;6.45;6.05;;;;;;;30.33;28.34;100324.47;4905613;28;100959;-87
2022/06/18 11:14:26;;;;;;;8.43;6.63;;;;;;;30.44;27.67;100334.06;4924158;28;101608;-89
2022/06/18 11:16:55;;;;;;;7.13;6.63;;;;;;;30.44;27.07;100328.63;4923627;28;96961;-87
2022/06/18 11:19:29;;;;;;;6.35;5.95;;;;;;;30.49;26.81;100319.97;5009854;28;96941;-87
2022/06/18 11:21:55;;;;;;;6.45;6.05;;;;;;;30.48;27.42;100302.88;5025756;28;98674;-86
2022/06/18 11:24:20;;;;;;;6.80;6.20;;;;;;;30.55;27.51;100316.53;5024039;28;97319;-78
2022/06/18 11:26:48;;;;;;;7.25;6.22;;;;;;;30.44;27.87;100315.94;5010796;28;97156;-79
2022/06/18 11:29:33;;;;;;;6.65;6.18;;;;;;;30.39;28.33;100320.22;5027457;27;96996;-83
2022/06/18 11:32:10;;;;;;;6.43;6.03;;;;;;;30.34;28.46;100295.53;5026137;27;98760;-86
2022/06/18 11:34:38;;;;;;;7.72;6.30;;;;;;;30.42;28.85;100301.72;5018568;28;98471;-88
2022/06/18 11:37:25;;;;;;;6.50;6.07;;;;;;;30.42;28.40;100295.47;5014700;28;97119;-88
2022/06/18 11:40:12;;;;;;;6.80;6.30;;;;;;;30.49;28.52;100295.63;4998039;28;97173;-88
2022/06/18 11:42:51;;;;;;;6.35;5.95;;;;;;;30.40;28.38;100294.84;5002749;28;100945;-87
2022/06/18 11:45:48;;;;;;;6.93;6.43;;;;;;;30.54;28.36;100287.75;5012317;28;100373;-87
2022/06/18 11:48:26;;;;;;;6.82;6.38;;;;;;;30.52;28.18;100282.53;5002489;28;96765;-87
2022/06/18 11:51:00;;;;;;;6.73;6.23;;;;;;;30.44;28.49;100280.75;5019198;28;97352;-88
2022/06/18 11:53:55;;;;;;;6.82;6.18;;;;;;;30.36;28.32;100286.22;5013313;28;100001;-89